首页
METAR-TAF:

METAR-TAF

机场 :

Clemson, 南卡罗来纳州, 美国

纬度: 34-40-20N, 经度: 082-52-53W, 海拔: 272米

当前天气观测

该预报发布于25分钟前的19:54 UTC
风速7节,风向东转东北
温度 8°C
湿度 66%
气压 1026 hPa
能見度: 16.1公里
阴天层高于2100英尺
小雨

METAR: KCEU 141954Z AUTO 07007KT 10SM -RA OVC021 08/02 A3030 RMK AO2 RAB46 SLP260 P0000 T00780022

时间: 15:19 (20:19 UTC)


TAF: 丢失

超过4000个机场的气象观测和天气预报(METAR&TAF报告)。

可查询的气象台以黄色和红色小点在地图上表示。

将鼠标移到小点上方,可查看气象台名称。

然后点击查看天气观测和预报。

如需切换地图:点击带黑十字的绿色按钮放大地图;点击带横线的绿色按钮缩小地图;或者点击绿色箭头查看邻近地区的地图。


METAR-TAF: